sensor_id;sensor_type;location;lat;lon;timestamp;P1;durP1;ratioP1;P2;durP2;ratioP2
15528;SDS011;7866;52.280;9.500;2022-12-24T00:00:48;12.13;;;10.93;;
15528;SDS011;7866;52.280;9.500;2022-12-24T00:05:49;9.33;;;8.43;;
15528;SDS011;7866;52.280;9.500;2022-12-24T00:10:53;7.77;;;7.00;;
15528;SDS011;7866;52.280;9.500;2022-12-24T00:15:54;7.73;;;7.03;;
15528;SDS011;7866;52.280;9.500;2022-12-24T00:20:56;7.90;;;7.20;;
15528;SDS011;7866;52.280;9.500;2022-12-24T00:25:59;6.40;;;5.80;;
15528;SDS011;7866;52.280;9.500;2022-12-24T00:31:05;5.50;;;5.00;;
15528;SDS011;7866;52.280;9.500;2022-12-24T00:36:08;6.03;;;5.53;;
15528;SDS011;7866;52.280;9.500;2022-12-24T00:41:11;5.80;;;5.30;;
15528;SDS011;7866;52.280;9.500;2022-12-24T00:46:24;6.97;;;5.50;;
15528;SDS011;7866;52.280;9.500;2022-12-24T00:51:27;5.87;;;5.27;;
15528;SDS011;7866;52.280;9.500;2022-12-24T00:56:31;6.53;;;5.77;;
15528;SDS011;7866;52.280;9.500;2022-12-24T01:01:32;5.50;;;5.00;;
15528;SDS011;7866;52.280;9.500;2022-12-24T01:06:35;5.50;;;5.07;;
15528;SDS011;7866;52.280;9.500;2022-12-24T01:11:38;3.20;;;2.90;;
15528;SDS011;7866;52.280;9.500;2022-12-24T01:16:40;2.50;;;2.30;;
15528;SDS011;7866;52.280;9.500;2022-12-24T01:21:42;2.03;;;1.90;;
15528;SDS011;7866;52.280;9.500;2022-12-24T01:26:45;4.23;;;3.07;;
15528;SDS011;7866;52.280;9.500;2022-12-24T01:31:46;6.70;;;3.70;;
15528;SDS011;7866;52.280;9.500;2022-12-24T01:36:48;4.90;;;3.50;;
15528;SDS011;7866;52.280;9.500;2022-12-24T01:41:51;5.27;;;3.37;;
15528;SDS011;7866;52.280;9.500;2022-12-24T01:47:11;5.40;;;3.47;;
15528;SDS011;7866;52.280;9.500;2022-12-24T01:52:16;6.33;;;3.00;;
15528;SDS011;7866;52.280;9.500;2022-12-24T01:57:22;4.33;;;2.70;;
15528;SDS011;7866;52.280;9.500;2022-12-24T02:02:28;6.40;;;2.33;;
15528;SDS011;7866;52.280;9.500;2022-12-24T02:07:29;5.67;;;2.80;;
15528;SDS011;7866;52.280;9.500;2022-12-24T02:12:33;5.43;;;2.40;;
15528;SDS011;7866;52.280;9.500;2022-12-24T02:17:38;6.80;;;2.60;;
15528;SDS011;7866;52.280;9.500;2022-12-24T02:22:53;4.50;;;2.30;;
15528;SDS011;7866;52.280;9.500;2022-12-24T02:28:22;5.10;;;1.90;;
15528;SDS011;7866;52.280;9.500;2022-12-24T02:33:37;4.73;;;2.10;;
15528;SDS011;7866;52.280;9.500;2022-12-24T02:38:45;6.53;;;2.57;;
15528;SDS011;7866;52.280;9.500;2022-12-24T02:43:52;5.87;;;2.67;;
15528;SDS011;7866;52.280;9.500;2022-12-24T02:48:57;9.57;;;2.90;;
15528;SDS011;7866;52.280;9.500;2022-12-24T02:54:00;11.53;;;2.70;;
15528;SDS011;7866;52.280;9.500;2022-12-24T02:59:07;8.20;;;2.50;;
15528;SDS011;7866;52.280;9.500;2022-12-24T03:04:22;7.53;;;2.67;;
15528;SDS011;7866;52.280;9.500;2022-12-24T03:09:43;6.87;;;2.33;;
15528;SDS011;7866;52.280;9.500;2022-12-24T03:14:56;4.73;;;2.63;;
15528;SDS011;7866;52.280;9.500;2022-12-24T03:20:00;8.00;;;3.27;;
15528;SDS011;7866;52.280;9.500;2022-12-24T03:25:03;6.90;;;2.43;;
15528;SDS011;7866;52.280;9.500;2022-12-24T03:30:07;8.10;;;3.00;;
15528;SDS011;7866;52.280;9.500;2022-12-24T03:35:14;8.97;;;2.80;;
15528;SDS011;7866;52.280;9.500;2022-12-24T03:40:16;7.70;;;2.50;;
15528;SDS011;7866;52.280;9.500;2022-12-24T03:45:18;11.27;;;3.13;;
15528;SDS011;7866;52.280;9.500;2022-12-24T03:50:21;12.90;;;3.40;;
15528;SDS011;7866;52.280;9.500;2022-12-24T03:55:22;7.57;;;3.33;;
15528;SDS011;7866;52.280;9.500;2022-12-24T04:00:24;9.33;;;2.87;;
15528;SDS011;7866;52.280;9.500;2022-12-24T04:05:27;10.30;;;3.47;;
15528;SDS011;7866;52.280;9.500;2022-12-24T04:10:28;8.90;;;3.07;;
15528;SDS011;7866;52.280;9.500;2022-12-24T04:15:30;11.50;;;3.23;;
15528;SDS011;7866;52.280;9.500;2022-12-24T04:20:33;11.57;;;3.37;;
15528;SDS011;7866;52.280;9.500;2022-12-24T04:25:35;15.03;;;3.73;;
15528;SDS011;7866;52.280;9.500;2022-12-24T04:30:37;13.73;;;3.23;;
15528;SDS011;7866;52.280;9.500;2022-12-24T04:35:40;11.77;;;2.90;;
15528;SDS011;7866;52.280;9.500;2022-12-24T04:40:42;9.87;;;2.80;;
15528;SDS011;7866;52.280;9.500;2022-12-24T04:45:43;7.43;;;2.70;;
15528;SDS011;7866;52.280;9.500;2022-12-24T04:50:47;10.10;;;3.00;;
15528;SDS011;7866;52.280;9.500;2022-12-24T04:55:48;8.70;;;2.60;;
15528;SDS011;7866;52.280;9.500;2022-12-24T05:00:50;9.13;;;2.73;;
15528;SDS011;7866;52.280;9.500;2022-12-24T05:05:53;11.73;;;2.97;;
15528;SDS011;7866;52.280;9.500;2022-12-24T05:11:01;12.10;;;3.10;;
15528;SDS011;7866;52.280;9.500;2022-12-24T05:16:04;7.87;;;2.90;;
15528;SDS011;7866;52.280;9.500;2022-12-24T05:21:08;11.57;;;3.70;;
15528;SDS011;7866;52.280;9.500;2022-12-24T05:26:11;14.10;;;3.33;;
15528;SDS011;7866;52.280;9.500;2022-12-24T05:31:22;12.63;;;3.77;;
15528;SDS011;7866;52.280;9.500;2022-12-24T05:36:26;8.67;;;3.37;;
15528;SDS011;7866;52.280;9.500;2022-12-24T05:41:28;14.03;;;3.40;;
15528;SDS011;7866;52.280;9.500;2022-12-24T05:46:30;12.93;;;3.70;;
15528;SDS011;7866;52.280;9.500;2022-12-24T05:51:33;13.40;;;4.07;;
15528;SDS011;7866;52.280;9.500;2022-12-24T05:56:34;11.80;;;3.87;;
15528;SDS011;7866;52.280;9.500;2022-12-24T06:01:36;17.30;;;4.20;;
15528;SDS011;7866;52.280;9.500;2022-12-24T06:06:39;14.57;;;4.23;;
15528;SDS011;7866;52.280;9.500;2022-12-24T06:11:41;14.60;;;4.77;;
15528;SDS011;7866;52.280;9.500;2022-12-24T06:16:42;18.33;;;4.87;;
15528;SDS011;7866;52.280;9.500;2022-12-24T06:21:45;15.03;;;4.53;;
15528;SDS011;7866;52.280;9.500;2022-12-24T06:26:47;18.53;;;4.67;;
15528;SDS011;7866;52.280;9.500;2022-12-24T06:31:49;13.40;;;4.27;;
15528;SDS011;7866;52.280;9.500;2022-12-24T06:36:52;12.80;;;3.97;;
15528;SDS011;7866;52.280;9.500;2022-12-24T06:41:54;17.50;;;4.70;;
15528;SDS011;7866;52.280;9.500;2022-12-24T06:46:55;18.80;;;4.63;;
15528;SDS011;7866;52.280;9.500;2022-12-24T06:51:58;12.23;;;3.97;;
15528;SDS011;7866;52.280;9.500;2022-12-24T06:57:00;11.90;;;4.03;;
15528;SDS011;7866;52.280;9.500;2022-12-24T07:02:01;16.57;;;4.03;;
15528;SDS011;7866;52.280;9.500;2022-12-24T07:07:07;16.13;;;3.87;;
15528;SDS011;7866;52.280;9.500;2022-12-24T07:12:09;15.53;;;3.90;;
15528;SDS011;7866;52.280;9.500;2022-12-24T07:17:10;15.17;;;4.60;;
15528;SDS011;7866;52.280;9.500;2022-12-24T07:22:13;12.70;;;3.97;;
15528;SDS011;7866;52.280;9.500;2022-12-24T07:27:15;18.33;;;4.70;;
15528;SDS011;7866;52.280;9.500;2022-12-24T07:32:16;14.03;;;4.77;;
15528;SDS011;7866;52.280;9.500;2022-12-24T07:37:20;16.57;;;4.47;;
15528;SDS011;7866;52.280;9.500;2022-12-24T07:42:22;16.90;;;4.40;;
15528;SDS011;7866;52.280;9.500;2022-12-24T07:47:24;15.80;;;4.10;;
15528;SDS011;7866;52.280;9.500;2022-12-24T07:52:26;15.63;;;4.13;;
15528;SDS011;7866;52.280;9.500;2022-12-24T07:57:28;15.73;;;3.73;;
15528;SDS011;7866;52.280;9.500;2022-12-24T08:02:30;14.37;;;4.07;;
15528;SDS011;7866;52.280;9.500;2022-12-24T08:07:33;18.40;;;4.40;;
15528;SDS011;7866;52.280;9.500;2022-12-24T08:12:34;13.57;;;4.80;;
15528;SDS011;7866;52.280;9.500;2022-12-24T08:17:36;18.43;;;4.93;;
15528;SDS011;7866;52.280;9.500;2022-12-24T08:22:39;20.57;;;5.53;;
15528;SDS011;7866;52.280;9.500;2022-12-24T08:27:40;18.40;;;5.50;;
15528;SDS011;7866;52.280;9.500;2022-12-24T08:32:42;23.63;;;8.93;;
15528;SDS011;7866;52.280;9.500;2022-12-24T08:37:45;30.13;;;11.40;;
15528;SDS011;7866;52.280;9.500;2022-12-24T08:42:46;20.47;;;7.57;;
15528;SDS011;7866;52.280;9.500;2022-12-24T08:47:48;17.27;;;7.30;;
15528;SDS011;7866;52.280;9.500;2022-12-24T08:52:51;23.67;;;7.67;;
15528;SDS011;7866;52.280;9.500;2022-12-24T08:57:53;14.50;;;6.33;;
15528;SDS011;7866;52.280;9.500;2022-12-24T09:02:54;16.07;;;6.57;;
15528;SDS011;7866;52.280;9.500;2022-12-24T09:07:57;20.27;;;6.77;;
15528;SDS011;7866;52.280;9.500;2022-12-24T09:12:59;14.00;;;6.63;;
15528;SDS011;7866;52.280;9.500;2022-12-24T09:18:01;18.37;;;5.67;;
15528;SDS011;7866;52.280;9.500;2022-12-24T09:23:04;19.80;;;5.60;;
15528;SDS011;7866;52.280;9.500;2022-12-24T09:28:06;22.37;;;5.97;;
15528;SDS011;7866;52.280;9.500;2022-12-24T09:33:07;20.57;;;8.93;;
15528;SDS011;7866;52.280;9.500;2022-12-24T09:38:10;14.07;;;5.87;;
15528;SDS011;7866;52.280;9.500;2022-12-24T09:43:13;12.53;;;5.43;;
15528;SDS011;7866;52.280;9.500;2022-12-24T09:48:17;16.83;;;5.73;;
15528;SDS011;7866;52.280;9.500;2022-12-24T09:53:26;14.43;;;5.10;;
15528;SDS011;7866;52.280;9.500;2022-12-24T09:58:37;16.63;;;5.90;;
15528;SDS011;7866;52.280;9.500;2022-12-24T10:03:42;14.53;;;6.57;;
15528;SDS011;7866;52.280;9.500;2022-12-24T10:08:54;18.17;;;5.97;;
15528;SDS011;7866;52.280;9.500;2022-12-24T10:14:07;17.83;;;6.50;;
15528;SDS011;7866;52.280;9.500;2022-12-24T10:19:20;16.07;;;5.67;;
15528;SDS011;7866;52.280;9.500;2022-12-24T10:24:31;17.30;;;8.20;;
15528;SDS011;7866;52.280;9.500;2022-12-24T10:29:41;11.47;;;5.40;;
15528;SDS011;7866;52.280;9.500;2022-12-24T10:34:48;11.77;;;5.20;;
15528;SDS011;7866;52.280;9.500;2022-12-24T10:39:58;15.30;;;5.57;;
15528;SDS011;7866;52.280;9.500;2022-12-24T10:45:02;17.53;;;6.83;;
15528;SDS011;7866;52.280;9.500;2022-12-24T10:50:09;12.93;;;6.13;;
15528;SDS011;7866;52.280;9.500;2022-12-24T10:55:21;8.83;;;5.03;;
15528;SDS011;7866;52.280;9.500;2022-12-24T11:00:25;8.87;;;3.93;;
15528;SDS011;7866;52.280;9.500;2022-12-24T11:05:28;7.30;;;4.03;;
15528;SDS011;7866;52.280;9.500;2022-12-24T11:10:33;8.53;;;4.47;;
15528;SDS011;7866;52.280;9.500;2022-12-24T11:15:37;8.77;;;4.40;;
15528;SDS011;7866;52.280;9.500;2022-12-24T11:20:39;7.37;;;4.13;;
15528;SDS011;7866;52.280;9.500;2022-12-24T11:25:45;6.93;;;3.60;;
15528;SDS011;7866;52.280;9.500;2022-12-24T11:30:56;7.23;;;2.83;;
15528;SDS011;7866;52.280;9.500;2022-12-24T11:36:01;3.50;;;2.43;;
15528;SDS011;7866;52.280;9.500;2022-12-24T11:41:07;6.60;;;2.37;;
15528;SDS011;7866;52.280;9.500;2022-12-24T11:46:18;4.20;;;2.43;;
15528;SDS011;7866;52.280;9.500;2022-12-24T11:51:22;4.73;;;2.10;;
15528;SDS011;7866;52.280;9.500;2022-12-24T11:56:29;6.43;;;2.20;;
15528;SDS011;7866;52.280;9.500;2022-12-24T12:01:36;4.80;;;2.50;;
15528;SDS011;7866;52.280;9.500;2022-12-24T12:06:44;4.77;;;2.03;;
15528;SDS011;7866;52.280;9.500;2022-12-24T12:11:52;5.67;;;2.57;;
15528;SDS011;7866;52.280;9.500;2022-12-24T12:16:57;29.37;;;15.40;;
15528;SDS011;7866;52.280;9.500;2022-12-24T12:22:05;23.97;;;13.23;;
15528;SDS011;7866;52.280;9.500;2022-12-24T12:27:18;12.83;;;5.60;;
15528;SDS011;7866;52.280;9.500;2022-12-24T12:32:26;13.00;;;6.20;;
15528;SDS011;7866;52.280;9.500;2022-12-24T12:37:37;13.17;;;5.37;;
15528;SDS011;7866;52.280;9.500;2022-12-24T12:42:44;14.90;;;5.30;;
15528;SDS011;7866;52.280;9.500;2022-12-24T12:48:00;14.97;;;6.00;;
15528;SDS011;7866;52.280;9.500;2022-12-24T12:53:22;12.40;;;5.47;;
15528;SDS011;7866;52.280;9.500;2022-12-24T12:58:32;13.20;;;4.50;;
15528;SDS011;7866;52.280;9.500;2022-12-24T13:09:25;21.67;;;9.30;;
15528;SDS011;7866;52.280;9.500;2022-12-24T13:14:46;11.73;;;4.87;;
15528;SDS011;7866;52.280;9.500;2022-12-24T13:20:07;15.80;;;5.10;;
15528;SDS011;7866;52.280;9.500;2022-12-24T13:25:19;23.33;;;7.20;;
15528;SDS011;7866;52.280;9.500;2022-12-24T13:30:37;14.93;;;5.73;;
15528;SDS011;7866;52.280;9.500;2022-12-24T13:46:56;14.23;;;4.87;;
15528;SDS011;7866;52.280;9.500;2022-12-24T13:57:31;14.70;;;4.77;;
15528;SDS011;7866;52.280;9.500;2022-12-24T14:02:39;11.43;;;4.87;;
15528;SDS011;7866;52.280;9.500;2022-12-24T14:07:48;13.80;;;4.30;;
15528;SDS011;7866;52.280;9.500;2022-12-24T14:12:52;13.73;;;4.47;;
15528;SDS011;7866;52.280;9.500;2022-12-24T14:17:55;15.40;;;4.80;;
15528;SDS011;7866;52.280;9.500;2022-12-24T14:22:57;13.93;;;4.60;;
15528;SDS011;7866;52.280;9.500;2022-12-24T14:28:03;16.70;;;5.03;;
15528;SDS011;7866;52.280;9.500;2022-12-24T14:33:25;15.57;;;4.03;;
15528;SDS011;7866;52.280;9.500;2022-12-24T14:38:28;12.90;;;4.13;;
15528;SDS011;7866;52.280;9.500;2022-12-24T14:43:34;13.13;;;4.37;;
15528;SDS011;7866;52.280;9.500;2022-12-24T14:48:49;13.83;;;4.30;;
15528;SDS011;7866;52.280;9.500;2022-12-24T14:54:01;11.90;;;4.13;;
15528;SDS011;7866;52.280;9.500;2022-12-24T14:59:13;11.43;;;3.80;;
15528;SDS011;7866;52.280;9.500;2022-12-24T15:04:17;9.10;;;3.87;;
15528;SDS011;7866;52.280;9.500;2022-12-24T15:09:20;16.37;;;4.20;;
15528;SDS011;7866;52.280;9.500;2022-12-24T15:14:24;10.67;;;3.77;;
15528;SDS011;7866;52.280;9.500;2022-12-24T15:19:30;13.27;;;3.73;;
15528;SDS011;7866;52.280;9.500;2022-12-24T15:24:35;11.23;;;3.80;;
15528;SDS011;7866;52.280;9.500;2022-12-24T15:29:46;13.67;;;4.50;;
15528;SDS011;7866;52.280;9.500;2022-12-24T15:34:50;16.97;;;4.67;;
15528;SDS011;7866;52.280;9.500;2022-12-24T15:39:54;14.73;;;5.27;;
15528;SDS011;7866;52.280;9.500;2022-12-24T15:44:59;14.70;;;5.47;;
15528;SDS011;7866;52.280;9.500;2022-12-24T15:50:08;11.87;;;4.67;;
15528;SDS011;7866;52.280;9.500;2022-12-24T15:55:25;20.57;;;6.30;;
15528;SDS011;7866;52.280;9.500;2022-12-24T16:00:29;17.17;;;6.80;;
15528;SDS011;7866;52.280;9.500;2022-12-24T16:05:33;13.47;;;4.73;;
15528;SDS011;7866;52.280;9.500;2022-12-24T16:10:37;18.77;;;4.93;;
15528;SDS011;7866;52.280;9.500;2022-12-24T16:15:48;13.63;;;5.90;;
15528;SDS011;7866;52.280;9.500;2022-12-24T16:20:54;12.03;;;4.77;;
15528;SDS011;7866;52.280;9.500;2022-12-24T16:25:57;10.53;;;3.80;;
15528;SDS011;7866;52.280;9.500;2022-12-24T16:30:58;10.20;;;4.30;;
15528;SDS011;7866;52.280;9.500;2022-12-24T16:36:02;13.13;;;3.97;;
15528;SDS011;7866;52.280;9.500;2022-12-24T16:41:04;11.20;;;4.00;;
15528;SDS011;7866;52.280;9.500;2022-12-24T16:46:05;10.27;;;4.20;;
15528;SDS011;7866;52.280;9.500;2022-12-24T16:51:08;14.23;;;4.67;;
15528;SDS011;7866;52.280;9.500;2022-12-24T16:56:10;13.93;;;4.80;;
15528;SDS011;7866;52.280;9.500;2022-12-24T17:01:11;13.30;;;4.20;;
15528;SDS011;7866;52.280;9.500;2022-12-24T17:06:14;13.03;;;4.37;;
15528;SDS011;7866;52.280;9.500;2022-12-24T17:11:16;13.00;;;4.47;;
15528;SDS011;7866;52.280;9.500;2022-12-24T17:16:22;18.33;;;6.43;;
15528;SDS011;7866;52.280;9.500;2022-12-24T17:21:25;12.57;;;3.80;;
15528;SDS011;7866;52.280;9.500;2022-12-24T17:26:27;12.17;;;4.37;;
15528;SDS011;7866;52.280;9.500;2022-12-24T17:31:29;13.63;;;4.27;;
15528;SDS011;7866;52.280;9.500;2022-12-24T17:36:32;14.20;;;4.03;;
15528;SDS011;7866;52.280;9.500;2022-12-24T17:41:34;8.77;;;3.50;;
15528;SDS011;7866;52.280;9.500;2022-12-24T17:46:36;14.90;;;3.83;;
15528;SDS011;7866;52.280;9.500;2022-12-24T17:51:40;11.30;;;3.90;;
15528;SDS011;7866;52.280;9.500;2022-12-24T17:56:41;11.90;;;4.27;;
15528;SDS011;7866;52.280;9.500;2022-12-24T18:01:43;7.00;;;3.37;;
15528;SDS011;7866;52.280;9.500;2022-12-24T18:06:46;6.73;;;3.13;;
15528;SDS011;7866;52.280;9.500;2022-12-24T18:11:47;7.23;;;3.47;;
15528;SDS011;7866;52.280;9.500;2022-12-24T18:16:49;8.23;;;3.83;;
15528;SDS011;7866;52.280;9.500;2022-12-24T18:21:52;9.17;;;3.33;;
15528;SDS011;7866;52.280;9.500;2022-12-24T18:26:54;12.23;;;4.13;;
15528;SDS011;7866;52.280;9.500;2022-12-24T18:31:56;11.37;;;5.07;;
15528;SDS011;7866;52.280;9.500;2022-12-24T18:36:59;16.07;;;6.00;;
15528;SDS011;7866;52.280;9.500;2022-12-24T18:42:01;15.37;;;6.00;;
15528;SDS011;7866;52.280;9.500;2022-12-24T18:47:02;16.53;;;5.37;;
15528;SDS011;7866;52.280;9.500;2022-12-24T18:52:06;15.00;;;6.30;;
15528;SDS011;7866;52.280;9.500;2022-12-24T18:57:09;15.07;;;6.07;;
15528;SDS011;7866;52.280;9.500;2022-12-24T19:02:10;11.63;;;6.37;;
15528;SDS011;7866;52.280;9.500;2022-12-24T19:07:13;15.00;;;7.03;;
15528;SDS011;7866;52.280;9.500;2022-12-24T19:12:15;10.07;;;5.67;;
15528;SDS011;7866;52.280;9.500;2022-12-24T19:17:17;13.57;;;6.13;;
15528;SDS011;7866;52.280;9.500;2022-12-24T19:22:20;11.17;;;5.33;;
15528;SDS011;7866;52.280;9.500;2022-12-24T19:27:21;12.97;;;5.77;;
15528;SDS011;7866;52.280;9.500;2022-12-24T19:32:23;17.43;;;6.83;;
15528;SDS011;7866;52.280;9.500;2022-12-24T19:37:26;13.53;;;5.93;;
15528;SDS011;7866;52.280;9.500;2022-12-24T19:42:28;13.93;;;5.43;;
15528;SDS011;7866;52.280;9.500;2022-12-24T19:47:30;9.83;;;5.03;;
15528;SDS011;7866;52.280;9.500;2022-12-24T19:52:34;12.37;;;6.27;;
15528;SDS011;7866;52.280;9.500;2022-12-24T19:57:36;12.37;;;5.57;;
15528;SDS011;7866;52.280;9.500;2022-12-24T20:02:38;10.57;;;6.00;;
15528;SDS011;7866;52.280;9.500;2022-12-24T20:07:41;9.83;;;5.53;;
15528;SDS011;7866;52.280;9.500;2022-12-24T20:12:43;8.67;;;4.50;;
15528;SDS011;7866;52.280;9.500;2022-12-24T20:17:45;13.30;;;6.07;;
15528;SDS011;7866;52.280;9.500;2022-12-24T20:22:52;13.17;;;5.57;;
15528;SDS011;7866;52.280;9.500;2022-12-24T20:27:54;16.27;;;6.90;;
15528;SDS011;7866;52.280;9.500;2022-12-24T20:32:55;13.20;;;5.77;;
15528;SDS011;7866;52.280;9.500;2022-12-24T20:37:58;11.23;;;6.30;;
15528;SDS011;7866;52.280;9.500;2022-12-24T20:43:00;16.67;;;7.40;;
15528;SDS011;7866;52.280;9.500;2022-12-24T20:48:02;17.13;;;6.77;;
15528;SDS011;7866;52.280;9.500;2022-12-24T20:53:05;14.43;;;6.70;;
15528;SDS011;7866;52.280;9.500;2022-12-24T20:58:07;15.77;;;7.17;;
15528;SDS011;7866;52.280;9.500;2022-12-24T21:03:11;18.57;;;6.77;;
15528;SDS011;7866;52.280;9.500;2022-12-24T21:08:14;14.67;;;8.20;;
15528;SDS011;7866;52.280;9.500;2022-12-24T21:13:16;15.37;;;8.47;;
15528;SDS011;7866;52.280;9.500;2022-12-24T21:18:18;22.30;;;10.17;;
15528;SDS011;7866;52.280;9.500;2022-12-24T21:23:22;14.57;;;7.40;;
15528;SDS011;7866;52.280;9.500;2022-12-24T21:28:24;17.67;;;7.60;;
15528;SDS011;7866;52.280;9.500;2022-12-24T21:33:25;16.73;;;6.73;;
15528;SDS011;7866;52.280;9.500;2022-12-24T21:38:28;8.70;;;6.00;;
15528;SDS011;7866;52.280;9.500;2022-12-24T21:43:30;11.83;;;6.03;;
15528;SDS011;7866;52.280;9.500;2022-12-24T21:48:34;13.87;;;6.10;;
15528;SDS011;7866;52.280;9.500;2022-12-24T21:53:55;14.07;;;6.30;;
15528;SDS011;7866;52.280;9.500;2022-12-24T21:59:15;8.57;;;5.70;;
15528;SDS011;7866;52.280;9.500;2022-12-24T22:04:16;11.67;;;6.20;;
15528;SDS011;7866;52.280;9.500;2022-12-24T22:09:19;12.03;;;6.53;;
15528;SDS011;7866;52.280;9.500;2022-12-24T22:14:39;14.53;;;7.10;;
15528;SDS011;7866;52.280;9.500;2022-12-24T22:19:40;11.20;;;6.33;;
15528;SDS011;7866;52.280;9.500;2022-12-24T22:24:43;13.43;;;7.00;;
15528;SDS011;7866;52.280;9.500;2022-12-24T22:29:45;14.77;;;7.67;;
15528;SDS011;7866;52.280;9.500;2022-12-24T22:34:47;14.90;;;7.20;;
15528;SDS011;7866;52.280;9.500;2022-12-24T22:39:51;18.03;;;7.07;;
15528;SDS011;7866;52.280;9.500;2022-12-24T22:44:52;20.43;;;9.90;;
15528;SDS011;7866;52.280;9.500;2022-12-24T22:49:54;14.97;;;7.10;;
15528;SDS011;7866;52.280;9.500;2022-12-24T22:54:57;11.80;;;6.37;;
15528;SDS011;7866;52.280;9.500;2022-12-24T22:59:58;14.73;;;6.03;;
15528;SDS011;7866;52.280;9.500;2022-12-24T23:05:00;8.70;;;5.17;;
15528;SDS011;7866;52.280;9.500;2022-12-24T23:10:03;14.83;;;5.57;;
15528;SDS011;7866;52.280;9.500;2022-12-24T23:15:06;9.00;;;5.33;;
15528;SDS011;7866;52.280;9.500;2022-12-24T23:20:09;14.27;;;5.83;;
15528;SDS011;7866;52.280;9.500;2022-12-24T23:25:12;11.53;;;5.30;;
15528;SDS011;7866;52.280;9.500;2022-12-24T23:30:14;13.53;;;4.73;;
15528;SDS011;7866;52.280;9.500;2022-12-24T23:35:16;10.23;;;4.53;;
15528;SDS011;7866;52.280;9.500;2022-12-24T23:40:19;10.90;;;4.90;;
15528;SDS011;7866;52.280;9.500;2022-12-24T23:45:21;10.63;;;5.10;;
15528;SDS011;7866;52.280;9.500;2022-12-24T23:50:22;8.30;;;4.00;;
15528;SDS011;7866;52.280;9.500;2022-12-24T23:55:25;7.73;;;4.30;;
